El Nihuil, Argentina
Current Conditions -  °F | °C
As of 11:00 PM on Monday 20 Oct 2014 (Local Time) from SCIC Reporting Station
Clear Clear  
Wind Chill: 66°   Ceiling: Unl
Heat Index: 66°   Visibility: 6mi
Dew Point: 57°   Wind: 6mph
Humidity: 73%   Direction: 200°SSW
Pressure: 29.94"   Gusts: NA
Location:  35.03°S, 68.67°W
Report Text: SCIC 210200Z AUTO 20005KT 9999 NCD 19/14 Q1014
Loading
Personal Weather Stations






























Interactive Weather Map New forecast layout! Learn more

10-Day Weather Forecast

Advertisements
Track Severe Weather on mobile